Time;durP1;ratioP1;P1;durP2;ratioP2;P2;SDS_P1;SDS_P2;PMS_P1;PMS_P2;Temp;Humidity;BMP_temperature;BMP_pressure;BME280_temperature;BME280_humidity;BME280_pressure;Samples;Min_cycle;Max_cycle;Signal;HPM_P1;HPM_P2
2023/10/05 00:02:10;;;;;;;20.70;9.80;;;;;;;12.75;66.70;100160.75;6146037;23;20070;-93
2023/10/05 00:04:40;;;;;;;22.88;9.40;;;;;;;12.71;66.95;100165.88;6173164;23;20008;-93
2023/10/05 00:07:11;;;;;;;20.23;10.00;;;;;;;12.68;67.04;100179.09;6170744;23;20039;-93
2023/10/05 00:09:40;;;;;;;22.80;9.77;;;;;;;12.64;66.88;100178.00;6146608;23;20013;-93
2023/10/05 00:12:08;;;;;;;25.45;10.50;;;;;;;12.45;67.30;100156.00;6169115;23;20008;-93
2023/10/05 00:14:35;;;;;;;17.58;9.13;;;;;;;12.51;67.00;100163.06;6144044;23;20450;-93
2023/10/05 00:17:04;;;;;;;18.67;10.23;;;;;;;12.74;66.71;100178.03;6146067;23;20001;-93
2023/10/05 00:19:35;;;;;;;19.42;9.55;;;;;;;12.97;66.15;100184.09;6168666;23;20494;-93
2023/10/05 00:22:00;;;;;;;17.27;9.43;;;;;;;12.92;65.54;100158.66;6147002;23;20004;-93
2023/10/05 00:26:58;;;;;;;28.85;10.60;;;;;;;12.96;66.38;100180.56;6171782;23;20001;-92
2023/10/05 00:29:27;;;;;;;22.10;8.88;;;;;;;12.88;66.55;100170.28;6144424;23;20042;-93
2023/10/05 00:31:53;;;;;;;17.88;8.77;;;;;;;12.73;66.67;100171.00;6147310;23;20000;-92
2023/10/05 00:34:24;;;;;;;18.17;8.85;;;;;;;12.70;67.14;100177.75;6169955;23;20439;-93
2023/10/05 00:36:51;;;;;;;17.50;8.65;;;;;;;12.63;67.34;100171.78;6147623;23;20000;-93
2023/10/05 00:39:20;;;;;;;17.65;8.48;;;;;;;12.59;67.35;100178.78;6146418;23;20059;-92
2023/10/05 00:41:49;;;;;;;21.30;9.27;;;;;;;12.59;67.64;100183.38;6146948;23;20427;-93
2023/10/05 00:44:15;;;;;;;22.48;9.60;;;;;;;12.48;67.60;100163.59;6146611;23;20049;-93
2023/10/05 00:46:48;;;;;;;20.25;8.45;;;;;;;12.51;67.82;100182.81;6146370;23;20004;-92
2023/10/05 00:49:19;;;;;;;16.20;9.00;;;;;;;12.52;67.53;100181.72;6169463;23;20347;-93
2023/10/05 00:51:54;;;;;;;20.97;8.17;;;;;;;12.64;67.16;100194.22;6146816;23;20520;-92
2023/10/05 00:54:28;;;;;;;19.42;7.88;;;;;;;12.66;66.74;100179.38;6148855;23;20627;-94
2023/10/05 00:56:57;;;;;;;18.02;7.70;;;;;;;12.54;67.16;100168.75;6149176;23;20032;-93
2023/10/05 00:59:26;;;;;;;18.77;8.98;;;;;;;12.42;67.26;100153.84;6170436;23;20003;-93
2023/10/05 01:04:26;;;;;;;17.42;8.98;;;;;;;12.59;67.67;100188.78;6172209;23;20067;-93
2023/10/05 01:07:07;;;;;;;15.43;9.20;;;;;;;12.34;67.65;100161.34;6147909;23;20058;-93
2023/10/05 01:09:56;;;;;;;15.73;8.77;;;;;;;12.37;68.20;100178.94;6151292;23;20355;-93
2023/10/05 01:12:43;;;;;;;16.00;7.53;;;;;;;12.40;67.84;100183.78;6156132;23;19996;-93
2023/10/05 01:15:10;;;;;;;15.68;8.50;;;;;;;12.36;67.68;100181.88;6179257;23;19997;-93
2023/10/05 01:17:36;;;;;;;20.85;8.63;;;;;;;12.35;67.79;100170.28;6147230;23;19996;-93
2023/10/05 01:22:38;;;;;;;18.40;8.50;;;;;;;12.20;68.21;100175.56;6171906;23;20424;-94
2023/10/05 01:25:04;;;;;;;20.90;8.23;;;;;;;12.15;68.38;100170.13;6146970;23;20008;-93
2023/10/05 01:27:31;;;;;;;17.70;8.15;;;;;;;12.17;68.53;100181.47;6145732;23;20027;-92
2023/10/05 01:30:00;;;;;;;16.08;8.27;;;;;;;12.16;68.28;100177.97;6145713;23;20020;-93
2023/10/05 01:32:26;;;;;;;21.00;8.20;;;;;;;12.16;68.42;100175.28;6146179;23;20004;-93
2023/10/05 01:34:52;;;;;;;17.02;8.30;;;;;;;12.23;68.39;100192.06;6144709;23;20020;-91
2023/10/05 01:37:22;;;;;;;18.73;8.20;;;;;;;12.16;68.22;100172.56;6169616;23;20011;-93
2023/10/05 01:39:47;;;;;;;18.17;8.00;;;;;;;12.24;68.38;100180.19;6148453;23;19996;-92
2023/10/05 01:42:14;;;;;;;16.90;7.45;;;;;;;12.20;67.78;100171.00;6145535;23;20001;-91
2023/10/05 01:44:46;;;;;;;13.27;7.28;;;;;;;12.14;68.14;100180.13;6146206;23;20008;-93
2023/10/05 01:47:16;;;;;;;20.35;8.40;;;;;;;12.12;68.37;100177.69;6149694;23;20402;-93
2023/10/05 01:49:42;;;;;;;12.90;7.72;;;;;;;12.05;68.59;100174.38;6144860;23;19996;-93
2023/10/05 01:52:09;;;;;;;15.68;7.60;;;;;;;12.01;68.60;100180.53;6146335;23;20007;-93
2023/10/05 01:54:35;;;;;;;17.88;8.55;;;;;;;12.10;68.75;100197.91;6146143;23;20031;-92
2023/10/05 01:57:20;;;;;;;15.98;8.85;;;;;;;12.08;68.62;100181.97;6145052;23;20166;-93
2023/10/05 01:59:46;;;;;;;18.67;8.82;;;;;;;12.13;68.48;100184.69;6154261;23;19980;-92
2023/10/05 02:02:12;;;;;;;22.63;8.63;;;;;;;12.04;68.54;100172.75;6145463;23;20008;-92
2023/10/05 02:04:42;;;;;;;17.33;7.88;;;;;;;12.07;68.67;100179.50;6144708;23;20458;-92
2023/10/05 02:07:16;;;;;;;15.73;8.70;;;;;;;12.05;68.65;100173.56;6147051;23;20378;-91
2023/10/05 02:09:42;;;;;;;18.38;8.27;;;;;;;12.08;68.43;100167.66;6148241;23;19980;-93
2023/10/05 02:12:09;;;;;;;17.95;9.20;;;;;;;12.11;68.32;100169.81;6146066;23;20428;-92
2023/10/05 02:14:43;;;;;;;15.05;8.40;;;;;;;12.01;68.40;100159.75;6146495;23;19999;-93
2023/10/05 02:17:10;;;;;;;16.92;8.23;;;;;;;12.09;68.51;100178.19;6150840;23;20064;-93
2023/10/05 02:19:38;;;;;;;17.85;7.55;;;;;;;12.13;68.60;100200.88;6144948;23;20001;-94
2023/10/05 02:22:10;;;;;;;23.20;8.50;;;;;;;12.11;68.99;100188.72;6146851;23;20378;-93
2023/10/05 02:24:36;;;;;;;18.80;7.70;;;;;;;11.82;69.08;100172.00;6148937;23;20008;-93
2023/10/05 02:29:29;;;;;;;13.30;6.97;;;;;;;11.90;69.35;100198.53;6171336;23;20024;-93
2023/10/05 02:34:44;;;;;;;16.65;7.05;;;;;;;11.78;69.57;100206.75;6173883;23;20007;-93
2023/10/05 02:37:13;;;;;;;17.33;7.72;;;;;;;11.87;69.47;100213.34;6173366;23;20004;-93
2023/10/05 02:39:39;;;;;;;14.65;7.80;;;;;;;11.85;68.94;100190.34;6146547;23;20007;-94
2023/10/05 02:42:06;;;;;;;20.80;7.95;;;;;;;11.95;68.79;100184.28;6145426;23;20039;-92
2023/10/05 02:44:35;;;;;;;18.35;7.88;;;;;;;12.00;68.51;100190.53;6145949;23;20068;-92
2023/10/05 02:57:39;;;;;;;18.67;7.35;;;;;;;12.67;65.31;100213.41;6042410;23;20038;-93
2023/10/05 03:00:08;;;;;;;16.42;7.03;;;;;;;12.66;65.11;100209.09;6018961;23;20350;-92
2023/10/05 03:02:40;;;;;;;15.32;8.00;;;;;;;12.74;65.27;100210.47;6052855;23;20010;-93
2023/10/05 03:05:10;;;;;;;15.70;7.97;;;;;;;12.77;64.80;100206.44;6142964;23;20005;-93
2023/10/05 03:07:40;;;;;;;18.65;7.70;;;;;;;12.57;65.37;100193.63;6147258;23;20385;-93
2023/10/05 03:10:06;;;;;;;18.60;7.95;;;;;;;12.53;65.57;100194.16;6147064;23;20009;-93
2023/10/05 03:12:32;;;;;;;14.85;7.70;;;;;;;12.56;65.37;100182.00;6144118;23;20003;-92
2023/10/05 03:15:04;;;;;;;13.68;6.55;;;;;;;12.73;64.54;100182.63;6143945;23;19996;-93
2023/10/05 03:17:31;;;;;;;16.48;7.30;;;;;;;12.70;65.05;100195.84;6146565;23;20040;-92
2023/10/05 03:19:57;;;;;;;15.00;8.30;;;;;;;12.36;66.55;100190.78;6145261;23;20004;-93
2023/10/05 03:22:25;;;;;;;14.40;7.20;;;;;;;12.31;66.46;100196.97;6144632;23;20023;-93
2023/10/05 03:24:51;;;;;;;12.93;7.25;;;;;;;12.23;66.96;100204.75;6145156;23;20013;-92
2023/10/05 03:27:16;;;;;;;15.73;7.82;;;;;;;12.21;67.25;100209.59;6167967;23;20000;-94
2023/10/05 03:29:46;;;;;;;15.68;7.75;;;;;;;12.20;67.19;100211.50;6146043;23;20024;-94
2023/10/05 03:34:38;;;;;;;17.95;7.05;;;;;;;12.11;67.88;100208.44;6170065;23;20000;-93
2023/10/05 03:37:08;;;;;;;18.58;7.22;;;;;;;12.11;67.98;100213.81;6145174;23;20401;-92
2023/10/05 03:39:39;;;;;;;18.63;7.60;;;;;;;11.97;67.95;100201.84;6146795;23;20054;-92
2023/10/05 03:42:07;;;;;;;13.40;6.75;;;;;;;11.96;67.71;100202.91;6169437;23;20110;-93
2023/10/05 03:44:34;;;;;;;15.70;7.63;;;;;;;11.96;67.75;100205.63;6169151;23;20056;-92
2023/10/05 03:47:00;;;;;;;21.95;8.05;;;;;;;11.92;68.19;100197.22;6144029;23;20377;-93
2023/10/05 03:49:25;;;;;;;23.42;9.63;;;;;;;11.83;68.58;100196.03;6145289;23;20012;-93
2023/10/05 03:51:51;;;;;;;20.55;8.63;;;;;;;11.83;68.57;100197.88;6167981;23;20000;-92
2023/10/05 03:54:18;;;;;;;16.42;8.10;;;;;;;11.86;68.05;100208.19;6144032;23;20066;-94
2023/10/05 03:56:50;;;;;;;26.02;9.27;;;;;;;11.87;68.32;100207.09;6169322;23;20000;-96
2023/10/05 03:59:16;;;;;;;;;;;;;;;11.93;68.41;100209.66;6147164;23;20008;-93
2023/10/05 04:01:51;;;;;;;20.30;9.13;;;;;;;11.77;68.58;100188.97;6169467;23;19904;-93
2023/10/05 04:04:17;;;;;;;19.42;9.20;;;;;;;11.76;69.00;100200.00;6148002;23;20325;-92
2023/10/05 04:06:42;;;;;;;19.08;9.30;;;;;;;11.73;69.16;100210.22;6146292;23;20091;-93
2023/10/05 04:09:15;;;;;;;21.50;10.18;;;;;;;11.75;68.67;100188.41;6147596;23;20016;-93
2023/10/05 04:11:42;;;;;;;23.63;10.23;;;;;;;11.96;68.31;100211.00;6150059;23;19991;-92
2023/10/05 04:14:09;;;;;;;26.33;10.10;;;;;;;11.88;68.84;100198.78;6172564;23;20016;-95
2023/10/05 04:16:34;;;;;;;19.73;9.52;;;;;;;11.94;68.36;100196.97;6147000;23;20070;-93
2023/10/05 04:19:04;;;;;;;27.27;10.98;;;;;;;12.10;68.09;100220.31;6146350;23;20000;-93
2023/10/05 04:21:30;;;;;;;23.52;10.65;;;;;;;12.14;67.73;100212.53;6173743;23;20007;-92
2023/10/05 04:23:59;;;;;;;32.10;11.30;;;;;;;12.15;68.18;100218.72;6147881;23;20071;-93
2023/10/05 04:26:37;;;;;;;24.20;10.10;;;;;;;12.18;68.15;100224.44;6174165;23;20004;-93
2023/10/05 04:29:12;;;;;;;22.08;10.48;;;;;;;12.05;67.85;100193.25;6167261;23;20535;-93
2023/10/05 04:31:37;;;;;;;27.60;10.07;;;;;;;12.12;67.85;100207.38;6142278;23;20379;-95
2023/10/05 04:34:11;;;;;;;25.05;11.52;;;;;;;12.01;67.82;100188.63;6142288;23;20024;-93
2023/10/05 04:36:38;;;;;;;21.48;9.88;;;;;;;12.17;67.69;100214.69;6146328;23;20004;-93
2023/10/05 04:39:07;;;;;;;23.02;9.88;;;;;;;12.11;68.15;100211.13;6142424;23;20004;-93
2023/10/05 04:41:39;;;;;;;25.50;9.88;;;;;;;12.09;67.99;100218.66;6142812;23;20001;-94
2023/10/05 04:44:12;;;;;;;23.58;10.82;;;;;;;12.01;68.03;100199.44;6145127;23;20039;-91
2023/10/05 04:46:56;;;;;;;21.00;10.23;;;;;;;11.98;67.97;100203.47;6145278;23;20001;-93
2023/10/05 04:49:24;;;;;;;27.35;11.95;;;;;;;12.05;68.03;100204.06;6172597;23;20502;-92
2023/10/05 04:52:22;;;;;;;25.38;10.35;;;;;;;12.22;68.03;100225.53;6145476;23;20001;-95
2023/10/05 04:54:51;;;;;;;25.73;11.32;;;;;;;12.16;67.46;100204.13;6193971;23;20073;-94
2023/10/05 04:57:35;;;;;;;21.15;10.27;;;;;;;12.16;67.90;100212.25;6147666;23;20024;-95
2023/10/05 05:00:49;;;;;;;29.35;10.85;;;;;;;12.22;67.50;100216.59;6150733;23;20428;-94
2023/10/05 05:08:15;;;;;;;27.17;10.50;;;;;;;12.44;67.38;100222.72;6169005;23;20015;-92
2023/10/05 05:10:56;;;;;;;35.92;13.18;;;;;;;12.47;67.06;100218.69;6140028;23;20352;-92
2023/10/05 05:13:29;;;;;;;38.75;10.65;;;;;;;12.61;66.70;100224.44;6169517;23;19997;-91
2023/10/05 05:15:57;;;;;;;27.17;11.23;;;;;;;12.74;66.75;100224.81;6144742;23;20055;-92
2023/10/05 05:22:34;;;;;;;28.88;13.15;;;;;;;13.02;66.04;100257.91;6167603;23;20071;-92
2023/10/05 05:25:10;;;;;;;29.48;11.13;;;;;;;12.83;66.00;100203.50;6190506;23;20017;-92
2023/10/05 05:27:45;;;;;;;26.42;10.18;;;;;;;13.01;65.50;100207.66;6144239;23;20419;-93
2023/10/05 05:30:15;;;;;;;21.35;10.23;;;;;;;13.27;65.11;100237.47;6171981;23;20343;-92
2023/10/05 05:32:44;;;;;;;29.02;10.02;;;;;;;13.26;64.88;100227.72;6150605;23;20008;-93
2023/10/05 05:35:12;;;;;;;18.75;10.18;;;;;;;13.44;64.34;100240.00;6148169;23;20151;-94
2023/10/05 05:38:02;;;;;;;29.90;16.38;;;;;;;13.54;64.09;100248.16;6149067;23;20044;-95
2023/10/05 05:40:29;;;;;;;36.55;15.60;;;;;;;13.55;63.88;100236.25;6177652;23;19996;-94
2023/10/05 05:43:07;;;;;;;24.60;8.45;;;;;;;13.65;63.61;100230.84;6149554;23;20027;-94
2023/10/05 05:45:34;;;;;;;23.27;9.43;;;;;;;13.81;63.76;100263.38;6172707;23;20004;-93
2023/10/05 05:48:08;;;;;;;19.38;8.80;;;;;;;13.89;63.28;100258.22;6151407;23;19996;-94
2023/10/05 05:50:38;;;;;;;20.05;8.13;;;;;;;13.98;63.39;100252.28;6179136;23;20355;-93
2023/10/05 05:53:18;;;;;;;15.75;8.57;;;;;;;13.73;63.43;100233.03;6148586;23;20000;-91
2023/10/05 05:56:01;;;;;;;20.25;7.75;;;;;;;13.95;63.11;100249.03;6176398;23;19996;-96
2023/10/05 06:01:46;;;;;;;16.45;9.00;;;;;;;14.32;62.17;100258.00;6079557;23;20030;-95
2023/10/05 06:04:28;;;;;;;20.63;7.67;;;;;;;14.51;62.12;100277.22;6198144;23;20004;-95
2023/10/05 06:06:55;;;;;;;30.45;13.82;;;;;;;14.42;62.30;100259.88;6152115;23;20232;-94
2023/10/05 06:09:26;;;;;;;29.17;15.38;;;;;;;14.59;61.59;100259.59;6170940;23;19996;-94
2023/10/05 06:16:17;;;;;;;18.25;9.43;;;;;;;15.01;60.85;100289.09;6100680;23;20017;-94
2023/10/05 06:18:46;;;;;;;21.30;8.63;;;;;;;14.95;60.79;100279.34;6123925;23;20007;-92
2023/10/05 06:21:17;;;;;;;20.45;8.45;;;;;;;15.07;60.59;100279.06;6145399;23;20062;-93
2023/10/05 06:23:45;;;;;;;22.67;10.30;;;;;;;15.09;60.24;100268.75;6142910;23;20424;-93
2023/10/05 06:26:11;;;;;;;186.43;62.97;;;;;;;15.36;59.94;100282.72;6117227;23;20007;-91
2023/10/05 06:28:40;;;;;;;55.85;27.83;;;;;;;15.57;59.70;100298.94;6140438;23;20021;-93
2023/10/05 06:31:24;;;;;;;37.05;18.33;;;;;;;15.41;59.59;100262.91;6167080;23;20080;-93
2023/10/05 06:33:55;;;;;;;25.77;12.68;;;;;;;15.76;59.19;100291.00;6121666;23;20084;-94
2023/10/05 06:36:21;;;;;;;49.10;15.20;;;;;;;15.84;58.60;100273.31;6142987;23;20065;-95
2023/10/05 06:38:52;;;;;;;21.70;9.70;;;;;;;16.05;58.46;100287.56;6118635;23;20022;-94
2023/10/05 06:41:21;;;;;;;28.30;10.13;;;;;;;15.93;58.07;100277.03;6119334;23;20001;-94
2023/10/05 06:44:00;;;;;;;20.92;8.68;;;;;;;16.14;58.38;100291.28;6120662;23;20148;-96
2023/10/05 06:46:28;;;;;;;19.50;9.00;;;;;;;16.14;57.93;100278.53;6143424;23;20005;-93
2023/10/05 06:49:05;;;;;;;23.52;11.63;;;;;;;16.29;58.04;100293.91;6141060;23;20440;-95
2023/10/05 06:51:38;;;;;;;26.85;11.77;;;;;;;16.27;57.58;100271.63;6118201;23;20005;-96
2023/10/05 06:54:08;;;;;;;31.25;16.92;;;;;;;16.66;56.92;100280.78;6134385;23;20375;-95
2023/10/05 06:56:36;;;;;;;31.45;13.15;;;;;;;16.89;56.88;100309.16;6172799;23;20450;-92
2023/10/05 06:59:04;;;;;;;29.67;12.20;;;;;;;16.97;56.72;100292.19;6149518;23;19996;-94
2023/10/05 07:01:34;;;;;;;24.65;11.50;;;;;;;17.19;56.69;100308.03;6148191;23;20089;-93
2023/10/05 07:04:00;;;;;;;25.60;12.27;;;;;;;17.18;56.23;100309.13;6173298;23;20001;-94
2023/10/05 07:07:43;;;;;;;;;;;;;;;;;;;;;
2023/10/05 07:10:04;;;;;;;32.80;15.55;;;;;;;17.27;56.39;100304.66;6044651;23;20033;-92
2023/10/05 07:13:09;;;;;;;26.73;13.65;;;;;;;17.32;55.85;100276.56;6103717;23;20005;-94
2023/10/05 07:15:40;;;;;;;67.38;37.20;;;;;;;17.54;56.17;100301.34;6023075;23;19987;-92
2023/10/05 07:18:12;;;;;;;57.53;36.25;;;;;;;17.52;56.05;100287.22;6024971;23;20014;-93
2023/10/05 07:20:41;;;;;;;20.90;12.48;;;;;;;17.86;55.00;100318.91;5997388;23;20019;-94
2023/10/05 07:23:07;;;;;;;24.67;11.27;;;;;;;17.79;55.30;100293.94;6021859;23;20017;-92
2023/10/05 07:25:42;;;;;;;22.52;11.15;;;;;;;17.74;55.76;100291.25;6069489;23;20010;-94
2023/10/05 07:28:37;;;;;;;26.40;12.57;;;;;;;17.82;55.68;100287.88;6113122;23;20021;-95
2023/10/05 07:31:04;;;;;;;20.75;11.38;;;;;;;18.09;55.27;100313.69;6108417;23;20037;-96
2023/10/05 07:33:36;;;;;;;25.90;12.90;;;;;;;17.95;55.52;100298.09;6162616;23;20001;-96
2023/10/05 07:39:33;;;;;;;24.27;12.95;;;;;;;18.19;55.11;100302.63;6053840;23;20055;-95
2023/10/05 07:42:03;;;;;;;20.35;12.10;;;;;;;18.27;54.71;100301.97;6025498;23;20478;-93
2023/10/05 07:44:29;;;;;;;34.67;19.65;;;;;;;18.38;54.63;100310.78;6013972;23;20063;-95
2023/10/05 07:47:43;;;;;;;27.13;13.27;;;;;;;18.35;54.78;100284.94;6031795;23;20011;-95
2023/10/05 07:50:40;;;;;;;25.17;13.25;;;;;;;18.48;54.17;100307.91;6024326;23;20015;-95
2023/10/05 07:54:01;;;;;;;;;;;;;;;;;;;;;
2023/10/05 08:02:48;;;;;;;;;;;;;;;19.04;53.78;100321.69;6099370;23;20016;-95
2023/10/05 08:08:31;;;;;;;;;;;;;;;;;;;;;
2023/10/05 08:11:14;;;;;;;;;;;;;;;;;;;;;
2023/10/05 08:13:59;;;;;;;26.02;11.85;;;;;;;19.27;54.30;100307.03;6165977;23;19997;-95
2023/10/05 08:16:25;;;;;;;40.72;22.80;;;;;;;19.44;54.23;100311.88;6173678;23;20002;-94
2023/10/05 08:19:01;;;;;;;29.55;11.05;;;;;;;19.45;53.89;100299.84;6149069;23;20008;-96
2023/10/05 08:21:48;;;;;;;20.10;9.50;;;;;;;19.46;54.09;100276.88;6169631;23;20061;-95
2023/10/05 08:24:23;;;;;;;18.50;10.40;;;;;;;19.66;53.14;100288.50;6171265;23;20009;-94
2023/10/05 08:36:12;;;;;;;21.35;10.63;;;;;;;19.92;52.45;100270.44;6170347;23;20025;-94
2023/10/05 08:38:43;;;;;;;17.02;9.43;;;;;;;19.97;52.37;100277.72;6103771;23;20077;-95
2023/10/05 08:41:24;;;;;;;23.38;9.98;;;;;;;20.02;52.52;100269.38;6127904;23;19989;-94
2023/10/05 08:43:57;;;;;;;20.48;10.40;;;;;;;20.12;52.20;100271.06;6101307;23;20021;-94
2023/10/05 08:50:05;;;;;;;27.98;11.50;;;;;;;20.51;50.79;100283.25;6116092;23;20001;-93
2023/10/05 08:52:55;;;;;;;27.92;11.38;;;;;;;20.47;51.25;100254.88;6154921;23;20028;-93
2023/10/05 08:55:34;;;;;;;23.52;10.18;;;;;;;20.53;51.32;100250.91;6139979;23;20012;-94
2023/10/05 08:58:10;;;;;;;13.82;8.98;;;;;;;20.58;51.09;100262.53;6124965;23;20056;-93
2023/10/05 09:00:39;;;;;;;19.13;9.13;;;;;;;20.74;51.14;100260.22;6101442;23;20028;-93
2023/10/05 09:03:28;;;;;;;19.77;8.70;;;;;;;20.90;50.36;100263.34;6095432;23;20057;-94
2023/10/05 09:06:26;;;;;;;20.92;8.85;;;;;;;20.97;50.57;100279.31;6109114;23;20329;-94
2023/10/05 09:11:36;;;;;;;21.25;10.48;;;;;;;21.18;49.98;100263.91;6128080;23;20056;-95
2023/10/05 09:14:27;;;;;;;17.52;7.63;;;;;;;21.16;51.25;100255.19;6105203;23;20008;-94
2023/10/05 09:17:04;;;;;;;11.80;6.72;;;;;;;21.35;49.85;100260.44;6134596;23;20486;-93
2023/10/05 09:19:40;;;;;;;17.30;8.10;;;;;;;21.38;49.05;100270.75;6102037;23;20032;-95
2023/10/05 09:22:53;;;;;;;13.45;8.40;;;;;;;21.28;49.26;100251.06;6150559;23;20005;-95
2023/10/05 09:25:44;;;;;;;12.18;6.85;;;;;;;21.44;48.98;100246.78;6120407;23;20057;-94
2023/10/05 09:28:28;;;;;;;10.98;6.82;;;;;;;21.48;48.46;100245.00;6120895;23;19990;-93
2023/10/05 09:31:10;;;;;;;15.15;6.10;;;;;;;21.46;48.64;100236.31;6098548;23;20088;-93
2023/10/05 09:36:53;;;;;;;19.98;7.65;;;;;;;21.74;49.05;100255.97;6146580;23;20021;-93
2023/10/05 09:39:33;;;;;;;16.38;7.45;;;;;;;21.75;49.33;100238.41;6095422;23;20088;-95
2023/10/05 09:42:40;;;;;;;23.80;6.72;;;;;;;21.83;48.73;100246.97;6122610;23;19993;-95
2023/10/05 09:45:13;;;;;;;12.20;6.75;;;;;;;21.92;47.45;100226.63;6152090;23;19998;-92
2023/10/05 09:47:42;;;;;;;10.77;5.63;;;;;;;21.99;47.10;100220.66;6118522;23;20044;-90
2023/10/05 09:53:21;;;;;;;10.70;6.28;;;;;;;22.17;47.22;100226.94;6123657;22;20099;-92
2023/10/05 09:56:11;;;;;;;16.73;7.93;;;;;;;22.21;46.99;100214.19;6183454;23;20004;-92
2023/10/05 09:59:04;;;;;;;14.13;8.02;;;;;;;22.50;46.29;100235.44;6182049;23;20375;-91
2023/10/05 10:01:47;;;;;;;17.35;7.70;;;;;;;22.43;46.19;100213.16;6205399;23;19985;-93
2023/10/05 10:04:39;;;;;;;14.25;6.10;;;;;;;22.49;45.40;100209.13;6152108;23;20028;-92
2023/10/05 10:16:30;;;;;;;10.75;6.45;;;;;;;22.86;44.08;100214.94;6193915;22;20081;-96
2023/10/05 10:23:16;;;;;;;12.15;6.57;;;;;;;22.83;43.06;100201.06;6156854;23;20008;-95
2023/10/05 10:26:00;;;;;;;11.52;5.90;;;;;;;22.82;43.19;100178.31;6186298;23;20016;-96
2023/10/05 10:28:57;;;;;;;15.38;6.30;;;;;;;22.92;43.99;100186.16;6188599;23;20047;-94
2023/10/05 10:31:30;;;;;;;9.52;5.68;;;;;;;23.03;43.22;100189.34;6183801;23;20083;-94
2023/10/05 10:34:19;;;;;;;22.73;6.38;;;;;;;22.89;43.16;100162.13;6159727;23;19989;-94
2023/10/05 10:36:52;;;;;;;12.85;5.80;;;;;;;22.96;43.39;100167.88;6177964;23;20009;-94
2023/10/05 10:39:29;;;;;;;13.73;6.05;;;;;;;23.07;42.88;100153.78;6150043;23;20004;-93
2023/10/05 10:42:07;;;;;;;12.10;5.35;;;;;;;23.13;42.93;100146.97;6150569;23;20004;-95
2023/10/05 10:45:11;;;;;;;11.93;6.30;;;;;;;23.34;42.62;100160.72;6154388;23;20035;-93
2023/10/05 10:47:39;;;;;;;13.18;6.55;;;;;;;23.43;43.04;100166.97;6215885;23;20000;-96
2023/10/05 10:54:14;;;;;;;10.75;6.32;;;;;;;23.52;42.89;100150.38;6169771;23;20053;-94
2023/10/05 10:56:54;;;;;;;11.05;5.20;;;;;;;23.41;42.60;100133.50;6112208;23;20078;-94
2023/10/05 10:59:41;;;;;;;14.45;5.32;;;;;;;23.48;42.61;100138.47;6071143;23;20018;-94
2023/10/05 11:02:25;;;;;;;12.82;4.90;;;;;;;23.53;42.55;100143.75;6131062;23;20033;-95
2023/10/05 11:04:50;;;;;;;12.98;4.90;;;;;;;23.43;42.41;100122.16;6175828;23;20004;-95
2023/10/05 11:07:22;;;;;;;9.48;4.90;;;;;;;23.57;42.03;100137.25;6151117;23;20011;-94
2023/10/05 11:09:52;;;;;;;13.68;5.25;;;;;;;23.52;42.48;100114.66;6151648;23;20047;-96
2023/10/05 11:12:22;;;;;;;13.30;5.43;;;;;;;23.68;41.86;100123.88;6149703;23;20087;-95
2023/10/05 11:15:18;;;;;;;9.95;5.00;;;;;;;23.53;41.81;100108.84;6174363;23;20005;-95
2023/10/05 11:17:52;;;;;;;10.88;5.32;;;;;;;23.59;42.06;100099.22;6134475;23;20026;-95
2023/10/05 11:20:51;;;;;;;8.85;5.32;;;;;;;23.72;41.91;100099.25;6092692;23;20012;-96
2023/10/05 11:23:25;;;;;;;14.38;6.15;;;;;;;23.71;42.19;100090.19;6087306;23;20032;-93
2023/10/05 11:26:38;;;;;;;12.13;5.45;;;;;;;23.78;41.99;100089.66;6066419;23;20029;-95
2023/10/05 11:29:17;;;;;;;;;;;;;;;;;;;;;
2023/10/05 11:31:52;;;;;;;15.45;6.07;;;;;;;23.74;41.53;100084.03;6092555;23;20022;-94
2023/10/05 11:34:19;;;;;;;10.48;6.10;;;;;;;23.82;41.70;100087.84;6063049;23;20002;-95
2023/10/05 11:36:52;;;;;;;8.68;5.25;;;;;;;23.86;41.70;100088.78;6060817;23;20006;-94
2023/10/05 11:40:00;;;;;;;10.18;5.20;;;;;;;24.03;41.09;100097.97;6091704;23;20009;-96
2023/10/05 11:42:50;;;;;;;11.25;4.60;;;;;;;23.88;40.67;100066.44;6089213;23;19998;-96
2023/10/05 11:45:18;;;;;;;11.70;4.97;;;;;;;23.93;40.06;100072.53;6111715;23;20041;-94
2023/10/05 11:47:54;;;;;;;12.35;4.72;;;;;;;23.84;40.19;100062.75;6086769;23;19996;-93
2023/10/05 11:50:43;;;;;;;11.50;5.78;;;;;;;24.05;40.20;100081.94;6150113;23;20011;-91
2023/10/05 11:53:17;;;;;;;11.23;6.10;;;;;;;23.99;40.13;100079.41;6177550;23;20007;-92
2023/10/05 11:56:04;;;;;;;9.68;4.75;;;;;;;24.02;40.27;100080.69;6149816;23;20100;-95
2023/10/05 11:59:27;;;;;;;;;;;;;;;;;;;;;
2023/10/05 12:12:44;;;;;;;11.95;5.28;;;;;;;24.17;40.08;100060.72;6107625;23;20002;-96
2023/10/05 12:18:31;;;;;;;13.70;5.00;;;;;;;24.10;38.77;100045.97;6081883;23;20128;-94
2023/10/05 12:24:03;;;;;;;10.48;4.53;;;;;;;24.29;38.19;100042.63;6067674;23;20081;-93
2023/10/05 12:27:13;;;;;;;10.65;5.32;;;;;;;24.19;37.74;100030.91;6068798;23;20010;-95
2023/10/05 12:30:14;;;;;;;8.05;4.70;;;;;;;24.25;38.28;100028.75;6068625;23;20095;-93
2023/10/05 12:33:09;;;;;;;8.40;4.70;;;;;;;24.40;38.34;100047.34;6091991;23;20012;-91
2023/10/05 12:35:43;;;;;;;10.52;4.43;;;;;;;24.26;38.29;100029.53;6114159;23;20052;-92
2023/10/05 12:38:09;;;;;;;9.60;4.30;;;;;;;24.24;37.90;100015.31;6115379;23;20088;-94
2023/10/05 12:40:54;;;;;;;13.18;4.75;;;;;;;24.24;37.39;100013.41;6112175;23;20005;-94
2023/10/05 12:43:56;;;;;;;9.82;4.60;;;;;;;24.41;38.14;100026.91;6094606;23;20005;-94
2023/10/05 12:46:33;;;;;;;8.32;5.07;;;;;;;24.39;37.17;100020.16;6142451;23;20001;-93
2023/10/05 12:49:29;;;;;;;;;;;;;;;;;;;;;
2023/10/05 13:02:02;;;;;;;;;;;;;;;;;;;;;
2023/10/05 13:04:31;;;;;;;9.18;5.30;;;;;;;24.40;37.93;100003.28;6199989;23;20036;-93
2023/10/05 13:07:28;;;;;;;;;;;;;;;;;;;;;
2023/10/05 13:10:33;;;;;;;13.70;4.72;;;;;;;24.54;36.52;99993.88;6206222;23;20008;-95
2023/10/05 13:13:16;;;;;;;;;;;;;;;;;;;;;
2023/10/05 13:16:21;;;;;;;21.27;7.80;;;;;;;24.41;36.75;99993.88;6209441;23;20371;-93
2023/10/05 13:18:54;;;;;;;11.35;5.70;;;;;;;24.35;36.90;99972.44;6207727;23;20031;-93
2023/10/05 13:21:42;;;;;;;9.57;4.40;;;;;;;24.26;37.14;99958.81;6179434;23;19988;-95
2023/10/05 13:24:16;;;;;;;13.80;5.30;;;;;;;24.23;37.13;99958.69;6204089;23;20000;-92
2023/10/05 13:30:05;;;;;;;9.48;5.07;;;;;;;24.34;37.41;99955.13;6226464;23;20009;-93
2023/10/05 13:32:58;;;;;;;10.50;5.25;;;;;;;24.36;37.27;99958.34;6114557;23;20438;-93
2023/10/05 13:35:32;;;;;;;11.18;4.90;;;;;;;24.35;37.26;99953.16;6111208;23;20002;-94
2023/10/05 13:38:05;;;;;;;14.23;4.72;;;;;;;24.40;37.82;99951.00;6088281;23;20042;-94
2023/10/05 13:40:57;;;;;;;13.75;4.95;;;;;;;24.43;37.61;99959.72;6113659;23;20029;-92
2023/10/05 13:43:47;;;;;;;11.65;4.70;;;;;;;24.52;37.37;99960.38;6117047;23;20006;-94
2023/10/05 13:46:19;;;;;;;7.93;4.50;;;;;;;24.42;37.38;99950.63;6109681;23;19990;-91
2023/10/05 13:48:54;;;;;;;16.00;5.15;;;;;;;24.45;37.45;99938.13;6106580;23;20025;-93
2023/10/05 13:57:41;;;;;;;10.20;4.75;;;;;;;24.46;37.67;99953.50;6133437;23;20058;-96
2023/10/05 14:01:13;;;;;;;;;;;;;;;;;;;;;
2023/10/05 14:03:51;;;;;;;13.32;4.50;;;;;;;24.45;37.94;99951.91;6048545;23;20042;-94
2023/10/05 14:06:30;;;;;;;;;;;;;;;;;;;;;
2023/10/05 14:09:27;;;;;;;9.07;4.55;;;;;;;24.54;38.13;99953.38;5998270;23;20003;-95
2023/10/05 14:12:17;;;;;;;18.23;6.32;;;;;;;24.57;38.66;99960.13;6052517;23;20108;-95
2023/10/05 14:14:55;;;;;;;16.88;5.85;;;;;;;24.61;38.37;99952.78;6090242;23;20013;-94
2023/10/05 14:17:32;;;;;;;9.82;5.18;;;;;;;24.49;37.76;99922.53;6210951;23;20329;-94
2023/10/05 14:20:06;;;;;;;12.35;6.05;;;;;;;24.54;37.56;99928.59;6145239;23;20017;-94
2023/10/05 14:22:42;;;;;;;13.00;6.65;;;;;;;24.55;38.07;99932.97;6147569;23;20033;-94
2023/10/05 14:25:38;;;;;;;11.90;6.55;;;;;;;24.60;37.81;99931.91;6145667;23;20005;-96